シカゴ/オヘア の空港の天気 - METARとTAF

シカゴ・オヘア国際空港 ( KORD / ORD ) - アメリカ イリノイ州シカゴ
飛行場実況気象(Metar)
観測時間01/22 21:51 CST (01/23 03:51 UTC)
風向・風速南西 5m/s
視程10km以上
天気現象
全天の4割程度の雲 雲底高度 2740m
全天の8割程度の雲 雲底高度 3350m
気温4.4℃
湿度83%
気圧998.7hPa
METARKORD 230351Z 23009KT 10SM SCT090 BKN110 04/02 A2949 RMK AO2 RAB0252E06 SLP987 P0000 T00440017
過去の天気等 Google飛行場航空写真 Wunderground天気予報

過去48時間のMETAR

飛行場予報(TAF)
発表時間: 1/22 21:05 CST (1/23 03:05 UTC)
予報対象時間: 22日21時 CST ~ 24日0時 CST
風向・風速西 5m/s
視程10km以上
天気現象周辺でしゅう雨
全天の4割程度の雲 雲底高度 910m
全天を覆う雲 雲底高度 1,830m
23日3時 CST から
風向・風速西北西 7m/s 瞬間風速 10m/s
視程4,830m
天気現象弱い雪
全天の4割程度の雲 雲底高度 240m
全天を覆う雲 雲底高度 460m
23日3時 CST ~ 23日7時 CST に一時的に
視程1,610m
天気現象弱い雪
全天の4割程度の雲 雲底高度 120m
全天を覆う雲 雲底高度 240m
23日7時 CST から
風向・風速北西 8m/s 瞬間風速 11m/s
視程10km以上
天気現象弱いしゅう雪
全天を覆う雲 雲底高度 460m
23日16時 CST から
風向・風速北西 6m/s
視程10km以上
全天の8割程度の雲 雲底高度 910m
KORD 230305Z 2303/2406 26010KT P6SM VCSH SCT030 OVC060
FM230900 29013G20KT 3SM -SN SCT008 OVC015
TEMPO 2309/2313 1SM -SN SCT004 OVC008
FM231300 32015G22KT 6SM -SHSN OVC015
FM232200 31012KT P6SM BKN030